sensor_id;sensor_type;location;lat;lon;timestamp;pressure;altitude;pressure_sealevel;temperature;humidity
6128;BME280;7073;42.672;23.256;2023-02-12T00:00:49;95379.66;;;2.45;43.32
6128;BME280;7073;42.672;23.256;2023-02-12T00:03:17;95370.03;;;2.57;42.85
6128;BME280;7073;42.672;23.256;2023-02-12T00:05:45;95373.69;;;2.54;41.16
6128;BME280;7073;42.672;23.256;2023-02-12T00:08:12;95386.38;;;2.56;41.52
6128;BME280;7073;42.672;23.256;2023-02-12T00:10:41;95392.50;;;2.55;41.17
6128;BME280;7073;42.672;23.256;2023-02-12T00:13:08;95389.50;;;2.59;42.42
6128;BME280;7073;42.672;23.256;2023-02-12T00:15:37;95374.72;;;2.61;42.39
6128;BME280;7073;42.672;23.256;2023-02-12T00:18:04;95388.69;;;2.59;41.38
6128;BME280;7073;42.672;23.256;2023-02-12T00:20:31;95375.41;;;2.63;42.56
6128;BME280;7073;42.672;23.256;2023-02-12T00:22:59;95383.25;;;2.62;41.36
6128;BME280;7073;42.672;23.256;2023-02-12T00:25:26;95375.44;;;2.54;41.74
6128;BME280;7073;42.672;23.256;2023-02-12T00:27:53;95376.59;;;2.69;41.11
6128;BME280;7073;42.672;23.256;2023-02-12T00:30:20;95380.84;;;2.51;42.87
6128;BME280;7073;42.672;23.256;2023-02-12T00:32:46;95366.53;;;2.48;42.10
6128;BME280;7073;42.672;23.256;2023-02-12T00:35:13;95365.59;;;2.49;43.62
6128;BME280;7073;42.672;23.256;2023-02-12T00:37:40;95349.50;;;2.37;43.66
6128;BME280;7073;42.672;23.256;2023-02-12T00:40:09;95355.97;;;2.51;43.33
6128;BME280;7073;42.672;23.256;2023-02-12T00:42:36;95339.59;;;2.52;41.62
6128;BME280;7073;42.672;23.256;2023-02-12T00:45:03;95344.84;;;2.60;41.42
6128;BME280;7073;42.672;23.256;2023-02-12T00:47:30;95347.16;;;2.54;42.56
6128;BME280;7073;42.672;23.256;2023-02-12T00:49:56;95336.53;;;2.66;41.88
6128;BME280;7073;42.672;23.256;2023-02-12T00:52:23;95335.69;;;2.75;41.96
6128;BME280;7073;42.672;23.256;2023-02-12T00:54:50;95331.97;;;2.60;41.40
6128;BME280;7073;42.672;23.256;2023-02-12T00:57:18;95328.38;;;2.43;41.83
6128;BME280;7073;42.672;23.256;2023-02-12T00:59:45;95323.63;;;2.48;41.68
6128;BME280;7073;42.672;23.256;2023-02-12T01:02:12;95319.19;;;2.41;43.79
6128;BME280;7073;42.672;23.256;2023-02-12T01:04:39;95310.94;;;2.47;43.25
6128;BME280;7073;42.672;23.256;2023-02-12T01:07:06;95319.75;;;2.44;42.00
6128;BME280;7073;42.672;23.256;2023-02-12T01:09:33;95303.94;;;2.39;42.34
6128;BME280;7073;42.672;23.256;2023-02-12T01:11:59;95322.53;;;2.51;42.62
6128;BME280;7073;42.672;23.256;2023-02-12T01:14:28;95333.25;;;2.46;42.85
6128;BME280;7073;42.672;23.256;2023-02-12T01:16:56;95320.25;;;2.48;43.12
6128;BME280;7073;42.672;23.256;2023-02-12T01:19:22;95316.44;;;2.52;42.65
6128;BME280;7073;42.672;23.256;2023-02-12T01:21:49;95321.59;;;2.52;42.49
6128;BME280;7073;42.672;23.256;2023-02-12T01:24:16;95337.84;;;2.43;42.97
6128;BME280;7073;42.672;23.256;2023-02-12T01:26:43;95332.69;;;2.53;43.69
6128;BME280;7073;42.672;23.256;2023-02-12T01:29:10;95326.47;;;2.45;44.40
6128;BME280;7073;42.672;23.256;2023-02-12T01:31:38;95333.75;;;2.60;44.19
6128;BME280;7073;42.672;23.256;2023-02-12T01:34:06;95333.78;;;2.50;43.69
6128;BME280;7073;42.672;23.256;2023-02-12T01:36:33;95327.56;;;2.53;44.20
6128;BME280;7073;42.672;23.256;2023-02-12T01:39:00;95335.66;;;2.48;43.76
6128;BME280;7073;42.672;23.256;2023-02-12T01:41:30;95323.41;;;2.42;45.23
6128;BME280;7073;42.672;23.256;2023-02-12T01:44:06;95326.47;;;2.45;44.24
6128;BME280;7073;42.672;23.256;2023-02-12T01:46:33;95298.25;;;2.36;43.98
6128;BME280;7073;42.672;23.256;2023-02-12T01:49:04;95307.53;;;2.46;45.18
6128;BME280;7073;42.672;23.256;2023-02-12T01:51:32;95294.34;;;2.32;45.19
6128;BME280;7073;42.672;23.256;2023-02-12T01:54:03;95297.00;;;2.40;45.35
6128;BME280;7073;42.672;23.256;2023-02-12T01:56:33;95297.22;;;2.29;45.55
6128;BME280;7073;42.672;23.256;2023-02-12T01:59:00;95305.72;;;2.29;46.26
6128;BME280;7073;42.672;23.256;2023-02-12T02:01:28;95298.53;;;2.33;45.91
6128;BME280;7073;42.672;23.256;2023-02-12T02:03:59;95295.31;;;2.31;45.30
6128;BME280;7073;42.672;23.256;2023-02-12T02:06:31;95307.28;;;2.40;46.29
6128;BME280;7073;42.672;23.256;2023-02-12T02:09:00;95305.88;;;2.28;45.83
6128;BME280;7073;42.672;23.256;2023-02-12T02:11:27;95304.34;;;2.35;45.80
6128;BME280;7073;42.672;23.256;2023-02-12T02:14:11;95310.56;;;2.32;45.71
6128;BME280;7073;42.672;23.256;2023-02-12T02:17:04;95311.38;;;2.33;46.24
6128;BME280;7073;42.672;23.256;2023-02-12T02:19:53;95294.75;;;2.37;46.17
6128;BME280;7073;42.672;23.256;2023-02-12T02:22:31;95293.56;;;2.31;45.95
6128;BME280;7073;42.672;23.256;2023-02-12T02:25:25;95300.81;;;2.36;45.31
6128;BME280;7073;42.672;23.256;2023-02-12T02:28:02;95296.91;;;2.32;45.91
6128;BME280;7073;42.672;23.256;2023-02-12T02:30:37;95300.28;;;2.32;46.00
6128;BME280;7073;42.672;23.256;2023-02-12T02:33:18;95287.03;;;2.37;46.25
6128;BME280;7073;42.672;23.256;2023-02-12T02:35:52;95286.13;;;2.28;46.28
6128;BME280;7073;42.672;23.256;2023-02-12T02:38:28;95293.38;;;2.33;46.89
6128;BME280;7073;42.672;23.256;2023-02-12T02:41:01;95287.59;;;2.21;47.43
6128;BME280;7073;42.672;23.256;2023-02-12T02:43:34;95291.97;;;2.21;47.49
6128;BME280;7073;42.672;23.256;2023-02-12T02:46:06;95293.66;;;2.30;47.80
6128;BME280;7073;42.672;23.256;2023-02-12T02:48:37;95287.03;;;2.37;47.74
6128;BME280;7073;42.672;23.256;2023-02-12T02:51:09;95299.25;;;2.25;48.95
6128;BME280;7073;42.672;23.256;2023-02-12T02:53:42;95292.44;;;2.34;48.66
6128;BME280;7073;42.672;23.256;2023-02-12T02:56:13;95292.97;;;2.37;48.88
6128;BME280;7073;42.672;23.256;2023-02-12T02:58:42;95288.78;;;2.36;49.62
6128;BME280;7073;42.672;23.256;2023-02-12T03:01:17;95293.25;;;2.34;48.46
6128;BME280;7073;42.672;23.256;2023-02-12T03:03:48;95289.19;;;2.32;49.35
6128;BME280;7073;42.672;23.256;2023-02-12T03:06:23;95287.78;;;2.47;48.96
6128;BME280;7073;42.672;23.256;2023-02-12T03:08:55;95299.97;;;2.45;47.86
6128;BME280;7073;42.672;23.256;2023-02-12T03:11:25;95292.88;;;2.57;49.17
6128;BME280;7073;42.672;23.256;2023-02-12T03:13:58;95301.94;;;2.61;48.68
6128;BME280;7073;42.672;23.256;2023-02-12T03:16:31;95295.00;;;2.61;49.64
6128;BME280;7073;42.672;23.256;2023-02-12T03:19:04;95306.41;;;2.59;48.69
6128;BME280;7073;42.672;23.256;2023-02-12T03:21:38;95285.50;;;2.71;47.80
6128;BME280;7073;42.672;23.256;2023-02-12T03:24:10;95290.41;;;2.65;47.99
6128;BME280;7073;42.672;23.256;2023-02-12T03:26:42;95282.84;;;2.63;48.45
6128;BME280;7073;42.672;23.256;2023-02-12T03:29:12;95287.66;;;2.66;49.33
6128;BME280;7073;42.672;23.256;2023-02-12T03:31:49;95277.69;;;2.63;49.06
6128;BME280;7073;42.672;23.256;2023-02-12T03:34:24;95274.59;;;2.60;49.65
6128;BME280;7073;42.672;23.256;2023-02-12T03:36:56;95272.97;;;2.59;49.99
6128;BME280;7073;42.672;23.256;2023-02-12T03:39:31;95270.53;;;2.57;49.68
6128;BME280;7073;42.672;23.256;2023-02-12T03:42:04;95280.66;;;2.68;48.78
6128;BME280;7073;42.672;23.256;2023-02-12T03:44:45;95275.88;;;2.46;49.33
6128;BME280;7073;42.672;23.256;2023-02-12T03:47:21;95273.56;;;2.53;50.41
6128;BME280;7073;42.672;23.256;2023-02-12T03:49:54;95265.97;;;2.51;50.27
6128;BME280;7073;42.672;23.256;2023-02-12T03:52:24;95265.84;;;2.53;50.97
6128;BME280;7073;42.672;23.256;2023-02-12T03:54:52;95243.47;;;2.35;50.90
6128;BME280;7073;42.672;23.256;2023-02-12T03:57:20;95267.13;;;2.39;50.40
6128;BME280;7073;42.672;23.256;2023-02-12T03:59:48;95271.78;;;2.53;51.47
6128;BME280;7073;42.672;23.256;2023-02-12T04:02:17;95279.81;;;2.50;50.74
6128;BME280;7073;42.672;23.256;2023-02-12T04:04:45;95271.75;;;2.63;51.01
6128;BME280;7073;42.672;23.256;2023-02-12T04:07:12;95260.25;;;2.57;51.29
6128;BME280;7073;42.672;23.256;2023-02-12T04:09:40;95268.06;;;2.65;49.67
6128;BME280;7073;42.672;23.256;2023-02-12T04:12:32;95263.94;;;2.55;50.96
6128;BME280;7073;42.672;23.256;2023-02-12T04:15:10;95267.41;;;2.63;50.20
6128;BME280;7073;42.672;23.256;2023-02-12T04:17:47;95261.75;;;2.60;50.21
6128;BME280;7073;42.672;23.256;2023-02-12T04:20:21;95285.09;;;2.66;50.13
6128;BME280;7073;42.672;23.256;2023-02-12T04:22:54;95285.31;;;2.55;51.05
6128;BME280;7073;42.672;23.256;2023-02-12T04:25:34;95289.31;;;2.67;51.02
6128;BME280;7073;42.672;23.256;2023-02-12T04:28:11;95290.13;;;2.68;51.95
6128;BME280;7073;42.672;23.256;2023-02-12T04:30:43;95287.91;;;2.45;51.49
6128;BME280;7073;42.672;23.256;2023-02-12T04:33:17;95294.31;;;2.41;51.93
6128;BME280;7073;42.672;23.256;2023-02-12T04:35:48;95284.84;;;2.42;52.31
6128;BME280;7073;42.672;23.256;2023-02-12T04:38:18;95289.19;;;2.32;52.07
6128;BME280;7073;42.672;23.256;2023-02-12T04:40:48;95288.81;;;2.27;52.30
6128;BME280;7073;42.672;23.256;2023-02-12T04:43:25;95293.97;;;2.54;52.90
6128;BME280;7073;42.672;23.256;2023-02-12T04:45:52;95293.41;;;2.60;51.73
6128;BME280;7073;42.672;23.256;2023-02-12T04:48:20;95307.94;;;2.52;51.35
6128;BME280;7073;42.672;23.256;2023-02-12T04:50:47;95303.78;;;2.41;53.37
6128;BME280;7073;42.672;23.256;2023-02-12T04:53:14;95303.41;;;2.63;51.76
6128;BME280;7073;42.672;23.256;2023-02-12T04:55:42;95310.22;;;2.55;51.38
6128;BME280;7073;42.672;23.256;2023-02-12T04:58:09;95304.63;;;2.59;50.92
6128;BME280;7073;42.672;23.256;2023-02-12T05:00:36;95319.88;;;2.70;50.04
6128;BME280;7073;42.672;23.256;2023-02-12T05:03:03;95321.72;;;2.78;49.50
6128;BME280;7073;42.672;23.256;2023-02-12T05:05:31;95321.78;;;2.68;51.49
6128;BME280;7073;42.672;23.256;2023-02-12T05:07:58;95311.06;;;2.45;51.30
6128;BME280;7073;42.672;23.256;2023-02-12T05:10:25;95321.03;;;2.58;51.14
6128;BME280;7073;42.672;23.256;2023-02-12T05:12:52;95329.34;;;2.70;50.45
6128;BME280;7073;42.672;23.256;2023-02-12T05:15:20;95330.22;;;2.61;51.02
6128;BME280;7073;42.672;23.256;2023-02-12T05:17:47;95347.41;;;2.60;49.73
6128;BME280;7073;42.672;23.256;2023-02-12T05:20:14;95325.97;;;2.42;50.63
6128;BME280;7073;42.672;23.256;2023-02-12T05:22:42;95337.63;;;2.36;51.82
6128;BME280;7073;42.672;23.256;2023-02-12T05:25:09;95335.75;;;2.29;53.17
6128;BME280;7073;42.672;23.256;2023-02-12T05:27:36;95339.28;;;2.28;52.83
6128;BME280;7073;42.672;23.256;2023-02-12T05:30:03;95355.25;;;2.22;52.29
6128;BME280;7073;42.672;23.256;2023-02-12T05:32:30;95350.88;;;2.32;53.61
6128;BME280;7073;42.672;23.256;2023-02-12T05:34:57;95363.09;;;2.20;53.88
6128;BME280;7073;42.672;23.256;2023-02-12T05:37:23;95353.41;;;2.05;55.22
6128;BME280;7073;42.672;23.256;2023-02-12T05:39:52;95357.63;;;1.87;57.44
6128;BME280;7073;42.672;23.256;2023-02-12T05:42:18;95360.59;;;1.82;57.47
6128;BME280;7073;42.672;23.256;2023-02-12T05:44:45;95364.41;;;1.78;58.20
6128;BME280;7073;42.672;23.256;2023-02-12T05:47:12;95368.47;;;1.71;59.60
6128;BME280;7073;42.672;23.256;2023-02-12T05:49:39;95368.72;;;1.58;59.93
6128;BME280;7073;42.672;23.256;2023-02-12T05:52:07;95356.28;;;1.54;59.82
6128;BME280;7073;42.672;23.256;2023-02-12T05:54:34;95366.84;;;1.60;60.24
6128;BME280;7073;42.672;23.256;2023-02-12T05:57:02;95374.25;;;1.63;61.08
6128;BME280;7073;42.672;23.256;2023-02-12T05:59:29;95372.09;;;1.59;61.99
6128;BME280;7073;42.672;23.256;2023-02-12T06:01:55;95371.56;;;1.65;62.93
6128;BME280;7073;42.672;23.256;2023-02-12T06:04:24;95378.59;;;1.53;64.69
6128;BME280;7073;42.672;23.256;2023-02-12T06:06:51;95385.63;;;1.51;65.32
6128;BME280;7073;42.672;23.256;2023-02-12T06:09:20;95382.34;;;1.40;67.92
6128;BME280;7073;42.672;23.256;2023-02-12T06:11:47;95381.81;;;1.46;70.31
6128;BME280;7073;42.672;23.256;2023-02-12T06:14:19;95372.34;;;1.27;71.97
6128;BME280;7073;42.672;23.256;2023-02-12T06:16:47;95365.63;;;1.36;72.75
6128;BME280;7073;42.672;23.256;2023-02-12T06:19:14;95365.88;;;1.33;74.14
6128;BME280;7073;42.672;23.256;2023-02-12T06:21:42;95379.53;;;1.33;74.53
6128;BME280;7073;42.672;23.256;2023-02-12T06:24:10;95391.84;;;1.39;75.81
6128;BME280;7073;42.672;23.256;2023-02-12T06:26:37;95390.88;;;1.40;78.40
6128;BME280;7073;42.672;23.256;2023-02-12T06:29:05;95379.94;;;1.38;80.56
6128;BME280;7073;42.672;23.256;2023-02-12T06:31:35;95365.28;;;1.00;85.59
6128;BME280;7073;42.672;23.256;2023-02-12T06:34:04;95378.00;;;1.02;87.60
6128;BME280;7073;42.672;23.256;2023-02-12T06:36:31;95378.00;;;1.02;88.19
6128;BME280;7073;42.672;23.256;2023-02-12T06:39:00;95368.41;;;1.13;88.92
6128;BME280;7073;42.672;23.256;2023-02-12T06:41:27;95383.69;;;1.24;88.79
6128;BME280;7073;42.672;23.256;2023-02-12T06:43:54;95380.59;;;1.21;88.71
6128;BME280;7073;42.672;23.256;2023-02-12T06:46:21;95380.03;;;1.17;89.59
6128;BME280;7073;42.672;23.256;2023-02-12T06:48:51;95379.22;;;1.17;89.83
6128;BME280;7073;42.672;23.256;2023-02-12T06:51:18;95367.91;;;1.29;89.44
6128;BME280;7073;42.672;23.256;2023-02-12T06:53:46;95372.66;;;1.53;87.70
6128;BME280;7073;42.672;23.256;2023-02-12T06:56:13;95372.94;;;1.50;86.96
6128;BME280;7073;42.672;23.256;2023-02-12T06:58:41;95376.97;;;1.52;85.79
6128;BME280;7073;42.672;23.256;2023-02-12T07:01:09;95378.31;;;1.56;86.21
6128;BME280;7073;42.672;23.256;2023-02-12T07:03:38;95386.44;;;1.71;85.70
6128;BME280;7073;42.672;23.256;2023-02-12T07:06:07;95376.81;;;1.82;84.46
6128;BME280;7073;42.672;23.256;2023-02-12T07:08:34;95375.59;;;1.96;82.43
6128;BME280;7073;42.672;23.256;2023-02-12T07:11:21;95376.41;;;1.97;82.81
6128;BME280;7073;42.672;23.256;2023-02-12T07:13:48;95375.72;;;1.85;82.84
6128;BME280;7073;42.672;23.256;2023-02-12T07:16:15;95379.25;;;1.94;82.46
6128;BME280;7073;42.672;23.256;2023-02-12T07:18:42;95368.84;;;1.85;82.35
6128;BME280;7073;42.672;23.256;2023-02-12T07:21:13;95371.41;;;1.85;80.96
6128;BME280;7073;42.672;23.256;2023-02-12T07:23:40;95371.94;;;1.79;82.38
6128;BME280;7073;42.672;23.256;2023-02-12T07:26:09;95367.38;;;1.83;82.54
6128;BME280;7073;42.672;23.256;2023-02-12T07:28:37;95376.16;;;1.80;82.28
6128;BME280;7073;42.672;23.256;2023-02-12T07:31:08;95380.19;;;1.93;82.02
6128;BME280;7073;42.672;23.256;2023-02-12T07:33:35;95378.97;;;1.97;81.97
6128;BME280;7073;42.672;23.256;2023-02-12T07:36:03;95380.69;;;2.15;80.95
6128;BME280;7073;42.672;23.256;2023-02-12T07:38:32;95387.88;;;2.12;80.71
6128;BME280;7073;42.672;23.256;2023-02-12T07:41:06;95383.16;;;2.07;80.25
6128;BME280;7073;42.672;23.256;2023-02-12T07:43:33;95383.56;;;2.03;80.64
6128;BME280;7073;42.672;23.256;2023-02-12T07:46:06;95385.56;;;2.09;81.68
6128;BME280;7073;42.672;23.256;2023-02-12T07:48:33;95392.91;;;1.94;81.96
6128;BME280;7073;42.672;23.256;2023-02-12T07:51:08;95393.41;;;1.98;82.36
6128;BME280;7073;42.672;23.256;2023-02-12T07:53:42;95396.50;;;2.11;81.72
6128;BME280;7073;42.672;23.256;2023-02-12T07:56:11;95391.69;;;2.08;81.96
6128;BME280;7073;42.672;23.256;2023-02-12T07:58:38;95399.25;;;2.00;82.38
6128;BME280;7073;42.672;23.256;2023-02-12T08:01:13;95393.44;;;1.88;84.47
6128;BME280;7073;42.672;23.256;2023-02-12T08:03:40;95401.84;;;1.80;85.95
6128;BME280;7073;42.672;23.256;2023-02-12T08:06:08;95409.66;;;1.89;85.04
6128;BME280;7073;42.672;23.256;2023-02-12T08:08:35;95405.63;;;1.86;86.80
6128;BME280;7073;42.672;23.256;2023-02-12T08:11:05;95400.06;;;1.71;87.69
6128;BME280;7073;42.672;23.256;2023-02-12T08:13:33;95398.59;;;1.78;88.32
6128;BME280;7073;42.672;23.256;2023-02-12T08:16:00;95407.47;;;2.03;86.29
6128;BME280;7073;42.672;23.256;2023-02-12T08:18:30;95400.88;;;1.62;87.45
6128;BME280;7073;42.672;23.256;2023-02-12T08:21:01;95407.50;;;1.74;87.91
6128;BME280;7073;42.672;23.256;2023-02-12T08:23:28;95409.66;;;1.89;86.82
6128;BME280;7073;42.672;23.256;2023-02-12T08:26:08;95411.00;;;1.93;86.72
6128;BME280;7073;42.672;23.256;2023-02-12T08:28:55;95412.25;;;1.89;85.93
6128;BME280;7073;42.672;23.256;2023-02-12T08:31:24;95411.41;;;1.88;86.30
6128;BME280;7073;42.672;23.256;2023-02-12T08:33:52;95427.22;;;1.64;87.46
6128;BME280;7073;42.672;23.256;2023-02-12T08:36:20;95421.44;;;1.62;87.21
6128;BME280;7073;42.672;23.256;2023-02-12T08:38:48;95427.75;;;1.58;88.79
6128;BME280;7073;42.672;23.256;2023-02-12T08:41:18;95416.81;;;1.56;88.56
6128;BME280;7073;42.672;23.256;2023-02-12T08:43:45;95429.53;;;1.67;88.97
6128;BME280;7073;42.672;23.256;2023-02-12T08:46:15;95439.94;;;1.75;88.34
6128;BME280;7073;42.672;23.256;2023-02-12T08:48:43;95444.97;;;1.87;88.69
6128;BME280;7073;42.672;23.256;2023-02-12T08:51:13;95445.50;;;1.80;87.68
6128;BME280;7073;42.672;23.256;2023-02-12T08:53:41;95451.03;;;1.76;88.16
6128;BME280;7073;42.672;23.256;2023-02-12T08:56:09;95447.25;;;1.80;87.93
6128;BME280;7073;42.672;23.256;2023-02-12T08:58:38;95443.75;;;1.81;88.80
6128;BME280;7073;42.672;23.256;2023-02-12T09:01:09;95443.06;;;1.60;88.50
6128;BME280;7073;42.672;23.256;2023-02-12T09:03:36;95448.59;;;1.74;89.29
6128;BME280;7073;42.672;23.256;2023-02-12T09:06:04;95439.00;;;1.86;87.95
6128;BME280;7073;42.672;23.256;2023-02-12T09:11:33;95460.91;;;1.80;87.98
6128;BME280;7073;42.672;23.256;2023-02-12T09:14:03;95470.22;;;1.91;87.25
6128;BME280;7073;42.672;23.256;2023-02-12T09:16:33;95463.31;;;1.82;88.22
6128;BME280;7073;42.672;23.256;2023-02-12T09:19:00;95472.38;;;1.96;87.78
6128;BME280;7073;42.672;23.256;2023-02-12T09:21:27;95473.34;;;1.75;88.14
6128;BME280;7073;42.672;23.256;2023-02-12T09:23:54;95478.09;;;1.99;88.61
6128;BME280;7073;42.672;23.256;2023-02-12T09:26:22;95479.69;;;2.29;86.96
6128;BME280;7073;42.672;23.256;2023-02-12T09:28:50;95473.88;;;1.98;87.75
6128;BME280;7073;42.672;23.256;2023-02-12T09:31:20;95472.78;;;2.01;88.21
6128;BME280;7073;42.672;23.256;2023-02-12T09:33:50;95475.22;;;2.12;87.93
6128;BME280;7073;42.672;23.256;2023-02-12T09:36:17;95474.56;;;2.00;88.15
6128;BME280;7073;42.672;23.256;2023-02-12T09:38:44;95475.91;;;1.95;88.35
6128;BME280;7073;42.672;23.256;2023-02-12T09:44:28;95476.03;;;1.93;88.31
6128;BME280;7073;42.672;23.256;2023-02-12T09:47:02;95481.03;;;2.33;87.76
6128;BME280;7073;42.672;23.256;2023-02-12T09:49:54;95490.50;;;2.23;86.93
6128;BME280;7073;42.672;23.256;2023-02-12T09:52:25;95487.00;;;2.05;88.35
6128;BME280;7073;42.672;23.256;2023-02-12T09:54:53;95481.84;;;1.85;87.55
6128;BME280;7073;42.672;23.256;2023-02-12T09:57:24;95494.28;;;1.80;88.90
6128;BME280;7073;42.672;23.256;2023-02-12T09:59:57;95497.38;;;1.74;89.30
6128;BME280;7073;42.672;23.256;2023-02-12T10:02:25;95497.94;;;1.88;89.61
6128;BME280;7073;42.672;23.256;2023-02-12T10:04:53;95495.38;;;1.97;88.58
6128;BME280;7073;42.672;23.256;2023-02-12T10:07:31;95484.69;;;2.02;89.15
6128;BME280;7073;42.672;23.256;2023-02-12T10:10:09;95485.91;;;1.88;89.46
6128;BME280;7073;42.672;23.256;2023-02-12T10:12:48;95493.22;;;1.83;90.02
6128;BME280;7073;42.672;23.256;2023-02-12T10:15:29;95489.16;;;1.90;90.02
6128;BME280;7073;42.672;23.256;2023-02-12T10:18:07;95492.69;;;1.89;89.83
6128;BME280;7073;42.672;23.256;2023-02-12T10:20:54;95490.78;;;2.01;90.28
6128;BME280;7073;42.672;23.256;2023-02-12T10:23:56;95482.00;;;1.94;89.83
6128;BME280;7073;42.672;23.256;2023-02-12T10:26:29;95476.59;;;1.97;90.29
6128;BME280;7073;42.672;23.256;2023-02-12T10:28:58;95466.44;;;2.33;89.51
6128;BME280;7073;42.672;23.256;2023-02-12T10:31:29;95477.78;;;2.50;87.90
6128;BME280;7073;42.672;23.256;2023-02-12T10:33:59;95469.59;;;2.64;87.39
6128;BME280;7073;42.672;23.256;2023-02-12T10:36:32;95469.56;;;2.83;86.11
6128;BME280;7073;42.672;23.256;2023-02-12T10:39:12;95470.59;;;2.90;85.94
6128;BME280;7073;42.672;23.256;2023-02-12T10:41:45;95466.09;;;2.65;86.13
6128;BME280;7073;42.672;23.256;2023-02-12T10:44:12;95480.13;;;2.80;86.53
6128;BME280;7073;42.672;23.256;2023-02-12T10:46:40;95474.22;;;2.61;87.31
6128;BME280;7073;42.672;23.256;2023-02-12T10:49:10;95482.31;;;2.75;86.98
6128;BME280;7073;42.672;23.256;2023-02-12T10:51:55;95490.56;;;3.16;85.97
6128;BME280;7073;42.672;23.256;2023-02-12T10:54:34;95496.50;;;3.26;84.08
6128;BME280;7073;42.672;23.256;2023-02-12T10:57:12;95489.53;;;3.36;84.17
6128;BME280;7073;42.672;23.256;2023-02-12T10:59:40;95477.28;;;3.47;83.01
6128;BME280;7073;42.672;23.256;2023-02-12T11:02:25;95475.28;;;3.59;82.05
6128;BME280;7073;42.672;23.256;2023-02-12T11:04:55;95480.53;;;3.67;80.77
6128;BME280;7073;42.672;23.256;2023-02-12T11:07:24;95477.22;;;3.57;82.36
6128;BME280;7073;42.672;23.256;2023-02-12T11:09:54;95482.53;;;3.55;81.36
6128;BME280;7073;42.672;23.256;2023-02-12T11:12:32;95489.34;;;3.47;81.66
6128;BME280;7073;42.672;23.256;2023-02-12T11:15:03;95480.63;;;3.48;81.65
6128;BME280;7073;42.672;23.256;2023-02-12T11:17:35;95490.47;;;3.62;80.80
6128;BME280;7073;42.672;23.256;2023-02-12T11:20:22;95479.16;;;3.45;81.07
6128;BME280;7073;42.672;23.256;2023-02-12T11:22:52;95477.03;;;3.68;80.12
6128;BME280;7073;42.672;23.256;2023-02-12T11:25:20;95477.09;;;3.76;79.07
6128;BME280;7073;42.672;23.256;2023-02-12T11:27:59;95483.56;;;3.80;78.78
6128;BME280;7073;42.672;23.256;2023-02-12T11:30:26;95486.22;;;4.06;76.96
6128;BME280;7073;42.672;23.256;2023-02-12T11:32:53;95488.09;;;4.13;77.24
6128;BME280;7073;42.672;23.256;2023-02-12T11:35:23;95486.00;;;4.52;76.15
6128;BME280;7073;42.672;23.256;2023-02-12T11:37:57;95489.09;;;4.38;74.65
6128;BME280;7073;42.672;23.256;2023-02-12T11:40:26;95485.75;;;4.46;74.04
6128;BME280;7073;42.672;23.256;2023-02-12T11:42:56;95484.38;;;4.33;74.04
6128;BME280;7073;42.672;23.256;2023-02-12T11:45:29;95485.41;;;4.41;73.55
6128;BME280;7073;42.672;23.256;2023-02-12T11:47:57;95483.88;;;4.48;72.84
6128;BME280;7073;42.672;23.256;2023-02-12T11:50:28;95475.75;;;4.43;72.39
6128;BME280;7073;42.672;23.256;2023-02-12T11:52:57;95482.66;;;4.60;72.38
6128;BME280;7073;42.672;23.256;2023-02-12T11:55:38;95473.34;;;4.67;72.95
6128;BME280;7073;42.672;23.256;2023-02-12T11:58:13;95483.72;;;4.75;71.75
6128;BME280;7073;42.672;23.256;2023-02-12T12:00:45;95483.66;;;4.67;70.82
6128;BME280;7073;42.672;23.256;2023-02-12T12:03:21;95482.53;;;4.87;69.67
6128;BME280;7073;42.672;23.256;2023-02-12T12:05:54;95475.91;;;4.67;70.77
6128;BME280;7073;42.672;23.256;2023-02-12T12:08:25;95481.06;;;4.92;69.93
6128;BME280;7073;42.672;23.256;2023-02-12T12:10:56;95487.16;;;5.09;69.40
6128;BME280;7073;42.672;23.256;2023-02-12T12:13:30;95491.06;;;5.13;69.07
6128;BME280;7073;42.672;23.256;2023-02-12T12:16:06;95500.72;;;4.85;69.04
6128;BME280;7073;42.672;23.256;2023-02-12T12:19:03;95498.78;;;4.62;69.77
6128;BME280;7073;42.672;23.256;2023-02-12T12:21:56;95495.66;;;4.76;69.22
6128;BME280;7073;42.672;23.256;2023-02-12T12:24:30;95498.72;;;4.97;68.01
6128;BME280;7073;42.672;23.256;2023-02-12T12:27:14;95497.47;;;5.09;66.91
6128;BME280;7073;42.672;23.256;2023-02-12T12:30:17;95495.47;;;4.95;68.74
6128;BME280;7073;42.672;23.256;2023-02-12T12:32:46;95490.41;;;4.60;69.04
6128;BME280;7073;42.672;23.256;2023-02-12T12:35:17;95492.53;;;4.90;68.55
6128;BME280;7073;42.672;23.256;2023-02-12T12:37:54;95502.63;;;5.09;68.51
6128;BME280;7073;42.672;23.256;2023-02-12T12:40:44;95496.03;;;4.81;68.42
6128;BME280;7073;42.672;23.256;2023-02-12T12:43:24;95496.22;;;4.87;69.14
6128;BME280;7073;42.672;23.256;2023-02-12T12:46:10;95506.81;;;4.76;69.28
6128;BME280;7073;42.672;23.256;2023-02-12T12:49:08;95509.03;;;4.54;70.37
6128;BME280;7073;42.672;23.256;2023-02-12T12:52:00;95477.72;;;4.49;70.56
6128;BME280;7073;42.672;23.256;2023-02-12T12:54:43;95439.16;;;4.21;70.34
6128;BME280;7073;42.672;23.256;2023-02-12T12:57:29;95476.13;;;4.30;71.31
6128;BME280;7073;42.672;23.256;2023-02-12T13:00:31;95524.59;;;4.87;69.37
6128;BME280;7073;42.672;23.256;2023-02-12T13:06:29;95519.06;;;4.57;70.93
6128;BME280;7073;42.672;23.256;2023-02-12T13:09:10;95526.34;;;4.79;70.25
6128;BME280;7073;42.672;23.256;2023-02-12T13:11:52;95527.69;;;4.65;70.47
6128;BME280;7073;42.672;23.256;2023-02-12T13:14:34;95527.63;;;4.57;71.78
6128;BME280;7073;42.672;23.256;2023-02-12T13:17:12;95528.28;;;4.59;71.75
6128;BME280;7073;42.672;23.256;2023-02-12T13:19:51;95530.66;;;4.53;72.08
6128;BME280;7073;42.672;23.256;2023-02-12T13:22:23;95516.28;;;4.50;71.85
6128;BME280;7073;42.672;23.256;2023-02-12T13:24:56;95528.59;;;4.39;72.31
6128;BME280;7073;42.672;23.256;2023-02-12T13:27:30;95533.59;;;4.40;73.56
6128;BME280;7073;42.672;23.256;2023-02-12T13:30:03;95526.88;;;4.29;73.11
6128;BME280;7073;42.672;23.256;2023-02-12T13:32:34;95533.69;;;4.30;74.03
6128;BME280;7073;42.672;23.256;2023-02-12T13:35:06;95534.34;;;4.50;73.91
6128;BME280;7073;42.672;23.256;2023-02-12T13:37:38;95528.88;;;4.53;73.18
6128;BME280;7073;42.672;23.256;2023-02-12T13:40:14;95523.94;;;4.24;74.09
6128;BME280;7073;42.672;23.256;2023-02-12T13:42:48;95530.28;;;4.30;74.51
6128;BME280;7073;42.672;23.256;2023-02-12T13:45:26;95543.63;;;4.25;74.19
6128;BME280;7073;42.672;23.256;2023-02-12T13:48:10;95528.00;;;4.27;74.53
6128;BME280;7073;42.672;23.256;2023-02-12T13:50:45;95532.06;;;4.12;74.88
6128;BME280;7073;42.672;23.256;2023-02-12T13:53:21;95521.25;;;4.26;74.17
6128;BME280;7073;42.672;23.256;2023-02-12T13:56:06;95549.44;;;4.45;75.34